sensor_id;sensor_type;location;lat;lon;timestamp;P1;durP1;ratioP1;P2;durP2;ratioP2
21837;SDS011;11081;45.946;6.140;2022-09-09T00:00:59;4.75;;;1.00;;
21837;SDS011;11081;45.946;6.140;2022-09-09T00:03:40;1.95;;;0.68;;
21837;SDS011;11081;45.946;6.140;2022-09-09T00:06:15;0.50;;;0.50;;
21837;SDS011;11081;45.946;6.140;2022-09-09T00:08:51;2.30;;;0.85;;
21837;SDS011;11081;45.946;6.140;2022-09-09T00:11:27;7.40;;;1.17;;
21837;SDS011;11081;45.946;6.140;2022-09-09T00:14:06;2.63;;;0.98;;
21837;SDS011;11081;45.946;6.140;2022-09-09T00:16:41;2.42;;;0.70;;
21837;SDS011;11081;45.946;6.140;2022-09-09T00:19:17;4.43;;;0.70;;
21837;SDS011;11081;45.946;6.140;2022-09-09T00:21:53;3.72;;;0.93;;
21837;SDS011;11081;45.946;6.140;2022-09-09T00:24:38;4.43;;;1.15;;
21837;SDS011;11081;45.946;6.140;2022-09-09T00:27:11;2.05;;;0.88;;
21837;SDS011;11081;45.946;6.140;2022-09-09T00:29:47;3.75;;;0.80;;
21837;SDS011;11081;45.946;6.140;2022-09-09T00:32:21;3.75;;;0.77;;
21837;SDS011;11081;45.946;6.140;2022-09-09T00:34:54;6.57;;;1.40;;
21837;SDS011;11081;45.946;6.140;2022-09-09T00:37:26;2.00;;;0.77;;
21837;SDS011;11081;45.946;6.140;2022-09-09T00:39:59;4.13;;;1.17;;
21837;SDS011;11081;45.946;6.140;2022-09-09T00:42:32;5.40;;;1.00;;
21837;SDS011;11081;45.946;6.140;2022-09-09T00:45:12;7.57;;;1.38;;
21837;SDS011;11081;45.946;6.140;2022-09-09T00:47:56;2.95;;;0.95;;
21837;SDS011;11081;45.946;6.140;2022-09-09T00:50:40;3.63;;;1.00;;
21837;SDS011;11081;45.946;6.140;2022-09-09T00:53:19;7.43;;;1.27;;
21837;SDS011;11081;45.946;6.140;2022-09-09T00:55:58;5.80;;;1.67;;
21837;SDS011;11081;45.946;6.140;2022-09-09T00:58:34;2.92;;;1.35;;
21837;SDS011;11081;45.946;6.140;2022-09-09T01:01:03;1.80;;;0.90;;
21837;SDS011;11081;45.946;6.140;2022-09-09T01:03:34;5.55;;;1.20;;
21837;SDS011;11081;45.946;6.140;2022-09-09T01:06:13;3.15;;;1.00;;
21837;SDS011;11081;45.946;6.140;2022-09-09T01:08:57;5.40;;;0.88;;
21837;SDS011;11081;45.946;6.140;2022-09-09T01:11:35;2.60;;;1.10;;
21837;SDS011;11081;45.946;6.140;2022-09-09T01:14:14;2.78;;;1.02;;
21837;SDS011;11081;45.946;6.140;2022-09-09T01:16:52;4.80;;;0.90;;
21837;SDS011;11081;45.946;6.140;2022-09-09T01:19:25;3.92;;;1.33;;
21837;SDS011;11081;45.946;6.140;2022-09-09T01:22:09;1.38;;;0.75;;
21837;SDS011;11081;45.946;6.140;2022-09-09T01:24:46;4.13;;;1.00;;
21837;SDS011;11081;45.946;6.140;2022-09-09T01:27:43;3.50;;;0.80;;
21837;SDS011;11081;45.946;6.140;2022-09-09T01:30:22;4.07;;;0.95;;
21837;SDS011;11081;45.946;6.140;2022-09-09T01:32:53;2.45;;;0.80;;
21837;SDS011;11081;45.946;6.140;2022-09-09T01:35:28;1.80;;;0.80;;
21837;SDS011;11081;45.946;6.140;2022-09-09T01:38:02;5.38;;;0.90;;
21837;SDS011;11081;45.946;6.140;2022-09-09T01:40:31;3.38;;;1.35;;
21837;SDS011;11081;45.946;6.140;2022-09-09T01:43:01;3.97;;;1.00;;
21837;SDS011;11081;45.946;6.140;2022-09-09T01:45:30;2.30;;;0.85;;
21837;SDS011;11081;45.946;6.140;2022-09-09T01:47:59;3.33;;;0.98;;
21837;SDS011;11081;45.946;6.140;2022-09-09T02:01:27;2.58;;;0.80;;
21837;SDS011;11081;45.946;6.140;2022-09-09T02:04:07;1.25;;;0.80;;
21837;SDS011;11081;45.946;6.140;2022-09-09T02:06:44;3.40;;;0.85;;
21837;SDS011;11081;45.946;6.140;2022-09-09T02:09:22;1.08;;;0.82;;
21837;SDS011;11081;45.946;6.140;2022-09-09T02:11:54;2.47;;;1.00;;
21837;SDS011;11081;45.946;6.140;2022-09-09T02:14:41;3.33;;;0.80;;
21837;SDS011;11081;45.946;6.140;2022-09-09T02:17:15;1.05;;;0.80;;
21837;SDS011;11081;45.946;6.140;2022-09-09T02:19:59;4.30;;;1.27;;
21837;SDS011;11081;45.946;6.140;2022-09-09T02:22:45;4.30;;;1.10;;
21837;SDS011;11081;45.946;6.140;2022-09-09T02:25:19;3.33;;;0.95;;
21837;SDS011;11081;45.946;6.140;2022-09-09T02:27:52;2.05;;;0.90;;
21837;SDS011;11081;45.946;6.140;2022-09-09T02:30:21;4.30;;;1.30;;
21837;SDS011;11081;45.946;6.140;2022-09-09T02:32:54;2.88;;;1.20;;
21837;SDS011;11081;45.946;6.140;2022-09-09T02:35:39;3.88;;;1.00;;
21837;SDS011;11081;45.946;6.140;2022-09-09T02:38:10;3.20;;;1.13;;
21837;SDS011;11081;45.946;6.140;2022-09-09T02:40:49;2.05;;;0.93;;
21837;SDS011;11081;45.946;6.140;2022-09-09T02:43:18;3.85;;;1.10;;
21837;SDS011;11081;45.946;6.140;2022-09-09T02:45:49;5.80;;;1.33;;
21837;SDS011;11081;45.946;6.140;2022-09-09T02:48:26;0.95;;;0.82;;
21837;SDS011;11081;45.946;6.140;2022-09-09T02:51:03;3.95;;;1.05;;
21837;SDS011;11081;45.946;6.140;2022-09-09T02:53:40;4.10;;;1.15;;
21837;SDS011;11081;45.946;6.140;2022-09-09T02:56:16;3.20;;;0.65;;
21837;SDS011;11081;45.946;6.140;2022-09-09T02:58:48;2.45;;;1.10;;
21837;SDS011;11081;45.946;6.140;2022-09-09T03:01:19;2.47;;;1.08;;
21837;SDS011;11081;45.946;6.140;2022-09-09T03:03:48;3.70;;;0.80;;
21837;SDS011;11081;45.946;6.140;2022-09-09T03:06:17;5.93;;;0.90;;
21837;SDS011;11081;45.946;6.140;2022-09-09T03:08:50;3.83;;;0.80;;
21837;SDS011;11081;45.946;6.140;2022-09-09T03:11:23;2.75;;;0.90;;
21837;SDS011;11081;45.946;6.140;2022-09-09T03:13:51;2.20;;;0.77;;
21837;SDS011;11081;45.946;6.140;2022-09-09T03:16:21;2.17;;;0.95;;
21837;SDS011;11081;45.946;6.140;2022-09-09T03:18:52;4.70;;;0.80;;
21837;SDS011;11081;45.946;6.140;2022-09-09T03:21:20;7.80;;;1.10;;
21837;SDS011;11081;45.946;6.140;2022-09-09T03:23:48;8.27;;;1.15;;
21837;SDS011;11081;45.946;6.140;2022-09-09T03:26:17;3.92;;;0.85;;
21837;SDS011;11081;45.946;6.140;2022-09-09T03:28:46;1.95;;;1.08;;
21837;SDS011;11081;45.946;6.140;2022-09-09T03:31:17;3.45;;;0.90;;
21837;SDS011;11081;45.946;6.140;2022-09-09T03:33:47;4.53;;;1.00;;
21837;SDS011;11081;45.946;6.140;2022-09-09T03:36:17;3.58;;;0.95;;
21837;SDS011;11081;45.946;6.140;2022-09-09T03:38:45;5.05;;;1.30;;
21837;SDS011;11081;45.946;6.140;2022-09-09T03:41:14;1.92;;;0.90;;
21837;SDS011;11081;45.946;6.140;2022-09-09T03:43:42;1.52;;;1.10;;
21837;SDS011;11081;45.946;6.140;2022-09-09T03:46:10;2.00;;;1.00;;
21837;SDS011;11081;45.946;6.140;2022-09-09T03:48:38;3.95;;;0.93;;
21837;SDS011;11081;45.946;6.140;2022-09-09T03:51:08;3.42;;;1.08;;
21837;SDS011;11081;45.946;6.140;2022-09-09T03:53:37;3.97;;;1.10;;
21837;SDS011;11081;45.946;6.140;2022-09-09T03:56:06;3.53;;;0.93;;
21837;SDS011;11081;45.946;6.140;2022-09-09T03:58:34;2.42;;;1.20;;
21837;SDS011;11081;45.946;6.140;2022-09-09T04:01:06;5.97;;;1.10;;
21837;SDS011;11081;45.946;6.140;2022-09-09T04:03:37;5.05;;;1.10;;
21837;SDS011;11081;45.946;6.140;2022-09-09T04:06:08;4.57;;;1.50;;
21837;SDS011;11081;45.946;6.140;2022-09-09T04:08:41;2.75;;;0.95;;
21837;SDS011;11081;45.946;6.140;2022-09-09T04:11:09;3.55;;;1.10;;
21837;SDS011;11081;45.946;6.140;2022-09-09T04:13:37;2.95;;;1.00;;
21837;SDS011;11081;45.946;6.140;2022-09-09T04:16:09;2.20;;;1.15;;
21837;SDS011;11081;45.946;6.140;2022-09-09T04:18:40;6.07;;;1.08;;
21837;SDS011;11081;45.946;6.140;2022-09-09T04:21:10;6.28;;;1.00;;
21837;SDS011;11081;45.946;6.140;2022-09-09T04:23:39;4.90;;;1.10;;
21837;SDS011;11081;45.946;6.140;2022-09-09T04:26:08;3.53;;;1.20;;
21837;SDS011;11081;45.946;6.140;2022-09-09T04:28:37;2.40;;;0.93;;
21837;SDS011;11081;45.946;6.140;2022-09-09T04:31:14;2.72;;;1.30;;
21837;SDS011;11081;45.946;6.140;2022-09-09T04:33:45;1.63;;;0.95;;
21837;SDS011;11081;45.946;6.140;2022-09-09T04:36:16;8.45;;;1.20;;
21837;SDS011;11081;45.946;6.140;2022-09-09T04:38:47;2.72;;;1.08;;
21837;SDS011;11081;45.946;6.140;2022-09-09T04:41:16;5.18;;;1.17;;
21837;SDS011;11081;45.946;6.140;2022-09-09T04:43:48;3.10;;;0.90;;
21837;SDS011;11081;45.946;6.140;2022-09-09T04:46:16;2.97;;;1.00;;
21837;SDS011;11081;45.946;6.140;2022-09-09T04:48:47;7.47;;;1.00;;
21837;SDS011;11081;45.946;6.140;2022-09-09T04:51:18;2.38;;;0.90;;
21837;SDS011;11081;45.946;6.140;2022-09-09T04:53:48;2.85;;;1.08;;
21837;SDS011;11081;45.946;6.140;2022-09-09T04:56:18;7.13;;;1.23;;
21837;SDS011;11081;45.946;6.140;2022-09-09T04:58:51;6.38;;;1.20;;
21837;SDS011;11081;45.946;6.140;2022-09-09T05:01:22;7.93;;;1.23;;
21837;SDS011;11081;45.946;6.140;2022-09-09T05:03:53;6.38;;;1.42;;
21837;SDS011;11081;45.946;6.140;2022-09-09T05:06:24;4.13;;;1.17;;
21837;SDS011;11081;45.946;6.140;2022-09-09T05:08:56;6.80;;;1.00;;
21837;SDS011;11081;45.946;6.140;2022-09-09T05:11:28;3.03;;;1.00;;
21837;SDS011;11081;45.946;6.140;2022-09-09T05:14:07;5.60;;;0.85;;
21837;SDS011;11081;45.946;6.140;2022-09-09T05:16:35;1.23;;;0.77;;
21837;SDS011;11081;45.946;6.140;2022-09-09T05:19:03;4.20;;;1.00;;
21837;SDS011;11081;45.946;6.140;2022-09-09T05:21:43;3.08;;;0.90;;
21837;SDS011;11081;45.946;6.140;2022-09-09T05:24:14;3.95;;;1.17;;
21837;SDS011;11081;45.946;6.140;2022-09-09T05:26:45;3.05;;;1.10;;
21837;SDS011;11081;45.946;6.140;2022-09-09T05:29:13;4.35;;;1.35;;
21837;SDS011;11081;45.946;6.140;2022-09-09T05:31:41;10.80;;;1.17;;
21837;SDS011;11081;45.946;6.140;2022-09-09T05:34:16;2.83;;;0.93;;
21837;SDS011;11081;45.946;6.140;2022-09-09T05:36:46;3.08;;;0.88;;
21837;SDS011;11081;45.946;6.140;2022-09-09T05:39:15;4.85;;;1.02;;
21837;SDS011;11081;45.946;6.140;2022-09-09T05:41:43;4.00;;;1.10;;
21837;SDS011;11081;45.946;6.140;2022-09-09T05:44:11;3.08;;;0.95;;
21837;SDS011;11081;45.946;6.140;2022-09-09T05:46:39;7.65;;;1.20;;
21837;SDS011;11081;45.946;6.140;2022-09-09T05:49:08;5.88;;;1.42;;
21837;SDS011;11081;45.946;6.140;2022-09-09T05:51:37;2.53;;;0.90;;
21837;SDS011;11081;45.946;6.140;2022-09-09T05:54:10;6.05;;;1.23;;
21837;SDS011;11081;45.946;6.140;2022-09-09T05:56:44;4.07;;;1.02;;
21837;SDS011;11081;45.946;6.140;2022-09-09T05:59:17;1.92;;;1.00;;
21837;SDS011;11081;45.946;6.140;2022-09-09T06:01:45;6.82;;;1.17;;
21837;SDS011;11081;45.946;6.140;2022-09-09T06:04:22;3.42;;;0.95;;
21837;SDS011;11081;45.946;6.140;2022-09-09T06:06:51;3.78;;;1.33;;
21837;SDS011;11081;45.946;6.140;2022-09-09T06:09:22;4.78;;;1.23;;
21837;SDS011;11081;45.946;6.140;2022-09-09T06:11:51;4.20;;;1.08;;
21837;SDS011;11081;45.946;6.140;2022-09-09T06:14:21;4.22;;;0.93;;
21837;SDS011;11081;45.946;6.140;2022-09-09T06:16:51;8.57;;;1.98;;
21837;SDS011;11081;45.946;6.140;2022-09-09T06:19:22;3.25;;;1.05;;
21837;SDS011;11081;45.946;6.140;2022-09-09T06:21:50;5.68;;;1.00;;
21837;SDS011;11081;45.946;6.140;2022-09-09T06:24:19;9.43;;;1.80;;
21837;SDS011;11081;45.946;6.140;2022-09-09T06:26:48;7.47;;;1.20;;
21837;SDS011;11081;45.946;6.140;2022-09-09T06:29:21;2.60;;;1.30;;
21837;SDS011;11081;45.946;6.140;2022-09-09T06:31:51;2.97;;;1.20;;
21837;SDS011;11081;45.946;6.140;2022-09-09T06:34:21;1.95;;;0.95;;
21837;SDS011;11081;45.946;6.140;2022-09-09T06:36:53;5.40;;;1.35;;
21837;SDS011;11081;45.946;6.140;2022-09-09T06:39:25;4.78;;;1.63;;
21837;SDS011;11081;45.946;6.140;2022-09-09T06:41:55;2.30;;;1.15;;
21837;SDS011;11081;45.946;6.140;2022-09-09T06:44:43;3.35;;;1.10;;
21837;SDS011;11081;45.946;6.140;2022-09-09T06:47:17;3.53;;;1.33;;
21837;SDS011;11081;45.946;6.140;2022-09-09T06:49:46;3.63;;;1.60;;
21837;SDS011;11081;45.946;6.140;2022-09-09T06:52:15;3.72;;;1.40;;
21837;SDS011;11081;45.946;6.140;2022-09-09T06:54:45;5.22;;;2.10;;
21837;SDS011;11081;45.946;6.140;2022-09-09T06:57:16;4.47;;;2.25;;
21837;SDS011;11081;45.946;6.140;2022-09-09T07:00:11;6.88;;;3.13;;
21837;SDS011;11081;45.946;6.140;2022-09-09T07:02:40;6.97;;;2.85;;
21837;SDS011;11081;45.946;6.140;2022-09-09T07:05:09;7.45;;;4.53;;
21837;SDS011;11081;45.946;6.140;2022-09-09T07:07:39;6.82;;;3.83;;
21837;SDS011;11081;45.946;6.140;2022-09-09T07:10:10;5.80;;;3.53;;
21837;SDS011;11081;45.946;6.140;2022-09-09T07:12:41;11.60;;;5.15;;
21837;SDS011;11081;45.946;6.140;2022-09-09T07:15:11;11.23;;;5.20;;
21837;SDS011;11081;45.946;6.140;2022-09-09T07:17:42;13.00;;;6.50;;
21837;SDS011;11081;45.946;6.140;2022-09-09T07:20:10;9.02;;;5.03;;
21837;SDS011;11081;45.946;6.140;2022-09-09T07:22:39;10.52;;;5.07;;
21837;SDS011;11081;45.946;6.140;2022-09-09T07:25:08;10.05;;;4.50;;
21837;SDS011;11081;45.946;6.140;2022-09-09T07:27:37;13.43;;;3.92;;
21837;SDS011;11081;45.946;6.140;2022-09-09T07:30:07;7.07;;;3.67;;
21837;SDS011;11081;45.946;6.140;2022-09-09T07:32:36;8.48;;;3.88;;
21837;SDS011;11081;45.946;6.140;2022-09-09T07:35:05;8.40;;;3.65;;
21837;SDS011;11081;45.946;6.140;2022-09-09T07:37:35;5.22;;;3.22;;
21837;SDS011;11081;45.946;6.140;2022-09-09T07:40:04;6.38;;;3.45;;
21837;SDS011;11081;45.946;6.140;2022-09-09T07:42:33;8.23;;;3.10;;
21837;SDS011;11081;45.946;6.140;2022-09-09T07:45:02;6.82;;;3.28;;
21837;SDS011;11081;45.946;6.140;2022-09-09T07:47:32;8.77;;;2.90;;
21837;SDS011;11081;45.946;6.140;2022-09-09T07:50:02;6.40;;;2.40;;
21837;SDS011;11081;45.946;6.140;2022-09-09T07:52:31;8.30;;;2.63;;
21837;SDS011;11081;45.946;6.140;2022-09-09T07:55:04;8.20;;;2.20;;
21837;SDS011;11081;45.946;6.140;2022-09-09T07:57:33;7.15;;;2.75;;
21837;SDS011;11081;45.946;6.140;2022-09-09T08:00:02;10.68;;;2.28;;
21837;SDS011;11081;45.946;6.140;2022-09-09T08:02:39;6.80;;;2.97;;
21837;SDS011;11081;45.946;6.140;2022-09-09T08:05:09;10.38;;;3.95;;
21837;SDS011;11081;45.946;6.140;2022-09-09T08:07:39;7.82;;;3.20;;
21837;SDS011;11081;45.946;6.140;2022-09-09T08:10:07;6.82;;;3.17;;
21837;SDS011;11081;45.946;6.140;2022-09-09T08:12:38;7.35;;;3.25;;
21837;SDS011;11081;45.946;6.140;2022-09-09T08:15:22;2.35;;;1.45;;
21837;SDS011;11081;45.946;6.140;2022-09-09T08:17:51;5.32;;;1.55;;
21837;SDS011;11081;45.946;6.140;2022-09-09T08:20:19;5.50;;;1.95;;
21837;SDS011;11081;45.946;6.140;2022-09-09T08:22:50;4.10;;;1.25;;
21837;SDS011;11081;45.946;6.140;2022-09-09T08:25:18;3.00;;;1.40;;
21837;SDS011;11081;45.946;6.140;2022-09-09T08:27:46;5.28;;;1.30;;
21837;SDS011;11081;45.946;6.140;2022-09-09T08:30:14;5.07;;;1.42;;
21837;SDS011;11081;45.946;6.140;2022-09-09T08:32:42;6.88;;;1.38;;
21837;SDS011;11081;45.946;6.140;2022-09-09T08:35:14;4.15;;;1.25;;
21837;SDS011;11081;45.946;6.140;2022-09-09T08:37:43;2.83;;;1.58;;
21837;SDS011;11081;45.946;6.140;2022-09-09T08:40:13;6.05;;;1.83;;
21837;SDS011;11081;45.946;6.140;2022-09-09T08:43:02;3.97;;;1.90;;
21837;SDS011;11081;45.946;6.140;2022-09-09T08:45:33;6.18;;;1.67;;
21837;SDS011;11081;45.946;6.140;2022-09-09T08:48:13;6.20;;;1.83;;
21837;SDS011;11081;45.946;6.140;2022-09-09T08:50:50;4.50;;;1.45;;
21837;SDS011;11081;45.946;6.140;2022-09-09T08:53:27;4.18;;;1.13;;
21837;SDS011;11081;45.946;6.140;2022-09-09T08:55:59;5.35;;;1.38;;
21837;SDS011;11081;45.946;6.140;2022-09-09T08:58:41;3.70;;;1.45;;
21837;SDS011;11081;45.946;6.140;2022-09-09T09:01:17;4.80;;;1.55;;
21837;SDS011;11081;45.946;6.140;2022-09-09T09:04:06;6.65;;;1.75;;
21837;SDS011;11081;45.946;6.140;2022-09-09T09:06:45;3.78;;;1.20;;
21837;SDS011;11081;45.946;6.140;2022-09-09T09:09:23;4.05;;;1.13;;
21837;SDS011;11081;45.946;6.140;2022-09-09T09:11:59;2.78;;;0.90;;
21837;SDS011;11081;45.946;6.140;2022-09-09T09:14:34;2.60;;;0.90;;
21837;SDS011;11081;45.946;6.140;2022-09-09T09:17:10;2.00;;;0.80;;
21837;SDS011;11081;45.946;6.140;2022-09-09T09:19:42;3.00;;;1.00;;
21837;SDS011;11081;45.946;6.140;2022-09-09T09:22:16;2.70;;;1.00;;
21837;SDS011;11081;45.946;6.140;2022-09-09T09:24:52;4.53;;;0.90;;
21837;SDS011;11081;45.946;6.140;2022-09-09T09:27:30;3.25;;;0.93;;
21837;SDS011;11081;45.946;6.140;2022-09-09T09:30:10;2.00;;;0.70;;
21837;SDS011;11081;45.946;6.140;2022-09-09T09:33:05;5.15;;;0.82;;
21837;SDS011;11081;45.946;6.140;2022-09-09T09:35:40;4.38;;;0.95;;
21837;SDS011;11081;45.946;6.140;2022-09-09T09:38:17;2.28;;;0.90;;
21837;SDS011;11081;45.946;6.140;2022-09-09T09:41:09;4.18;;;0.88;;
21837;SDS011;11081;45.946;6.140;2022-09-09T09:43:37;4.68;;;1.17;;
21837;SDS011;11081;45.946;6.140;2022-09-09T09:46:20;3.45;;;1.00;;
21837;SDS011;11081;45.946;6.140;2022-09-09T09:48:57;4.45;;;0.80;;
21837;SDS011;11081;45.946;6.140;2022-09-09T09:51:27;4.55;;;1.10;;
21837;SDS011;11081;45.946;6.140;2022-09-09T09:54:08;4.75;;;0.80;;
21837;SDS011;11081;45.946;6.140;2022-09-09T09:56:47;3.42;;;0.68;;
21837;SDS011;11081;45.946;6.140;2022-09-09T09:59:33;5.88;;;0.85;;
21837;SDS011;11081;45.946;6.140;2022-09-09T10:02:14;2.92;;;0.90;;
21837;SDS011;11081;45.946;6.140;2022-09-09T10:04:47;3.30;;;1.15;;
21837;SDS011;11081;45.946;6.140;2022-09-09T10:07:17;4.38;;;0.85;;
21837;SDS011;11081;45.946;6.140;2022-09-09T10:09:50;2.30;;;0.70;;
21837;SDS011;11081;45.946;6.140;2022-09-09T10:12:24;2.67;;;0.90;;
21837;SDS011;11081;45.946;6.140;2022-09-09T10:15:00;6.47;;;1.05;;
21837;SDS011;11081;45.946;6.140;2022-09-09T10:17:36;4.68;;;0.90;;
21837;SDS011;11081;45.946;6.140;2022-09-09T10:20:15;4.57;;;0.82;;
21837;SDS011;11081;45.946;6.140;2022-09-09T10:22:57;3.22;;;1.10;;
21837;SDS011;11081;45.946;6.140;2022-09-09T10:25:41;4.03;;;0.82;;
21837;SDS011;11081;45.946;6.140;2022-09-09T10:28:35;2.75;;;0.80;;
21837;SDS011;11081;45.946;6.140;2022-09-09T10:31:22;3.40;;;0.80;;
21837;SDS011;11081;45.946;6.140;2022-09-09T10:33:58;3.33;;;0.68;;
21837;SDS011;11081;45.946;6.140;2022-09-09T10:36:35;3.55;;;0.82;;
21837;SDS011;11081;45.946;6.140;2022-09-09T10:39:12;5.28;;;0.98;;
21837;SDS011;11081;45.946;6.140;2022-09-09T10:41:55;6.85;;;0.95;;
21837;SDS011;11081;45.946;6.140;2022-09-09T10:47:41;3.03;;;0.82;;
21837;SDS011;11081;45.946;6.140;2022-09-09T10:50:37;6.10;;;1.25;;
21837;SDS011;11081;45.946;6.140;2022-09-09T10:53:35;6.22;;;0.80;;
21837;SDS011;11081;45.946;6.140;2022-09-09T10:56:06;3.25;;;0.80;;
21837;SDS011;11081;45.946;6.140;2022-09-09T10:58:40;5.30;;;0.93;;
21837;SDS011;11081;45.946;6.140;2022-09-09T11:01:15;4.80;;;0.88;;
21837;SDS011;11081;45.946;6.140;2022-09-09T11:03:49;1.42;;;0.80;;
21837;SDS011;11081;45.946;6.140;2022-09-09T11:06:24;2.92;;;0.85;;
21837;SDS011;11081;45.946;6.140;2022-09-09T11:08:57;2.78;;;0.90;;
21837;SDS011;11081;45.946;6.140;2022-09-09T11:11:29;4.65;;;0.85;;
21837;SDS011;11081;45.946;6.140;2022-09-09T11:14:03;2.53;;;0.90;;
21837;SDS011;11081;45.946;6.140;2022-09-09T11:16:40;6.22;;;0.90;;
21837;SDS011;11081;45.946;6.140;2022-09-09T11:19:16;6.00;;;1.33;;
21837;SDS011;11081;45.946;6.140;2022-09-09T11:21:52;3.45;;;1.08;;
21837;SDS011;11081;45.946;6.140;2022-09-09T11:24:21;3.13;;;0.60;;
21837;SDS011;11081;45.946;6.140;2022-09-09T11:26:55;5.22;;;0.80;;
21837;SDS011;11081;45.946;6.140;2022-09-09T11:35:38;5.40;;;0.85;;
21837;SDS011;11081;45.946;6.140;2022-09-09T11:38:15;3.15;;;0.70;;
21837;SDS011;11081;45.946;6.140;2022-09-09T11:40:47;3.63;;;0.70;;
21837;SDS011;11081;45.946;6.140;2022-09-09T11:43:25;1.95;;;0.70;;
21837;SDS011;11081;45.946;6.140;2022-09-09T11:45:58;2.80;;;0.60;;
21837;SDS011;11081;45.946;6.140;2022-09-09T11:48:32;6.25;;;1.20;;
21837;SDS011;11081;45.946;6.140;2022-09-09T11:51:05;2.67;;;0.60;;
21837;SDS011;11081;45.946;6.140;2022-09-09T11:53:49;4.97;;;1.05;;
21837;SDS011;11081;45.946;6.140;2022-09-09T11:56:26;1.75;;;0.52;;
21837;SDS011;11081;45.946;6.140;2022-09-09T11:58:59;1.45;;;0.52;;
21837;SDS011;11081;45.946;6.140;2022-09-09T12:01:36;2.17;;;0.52;;
21837;SDS011;11081;45.946;6.140;2022-09-09T12:06:58;2.03;;;0.60;;
21837;SDS011;11081;45.946;6.140;2022-09-09T12:09:33;2.92;;;0.65;;
21837;SDS011;11081;45.946;6.140;2022-09-09T12:12:21;3.00;;;1.33;;
21837;SDS011;11081;45.946;6.140;2022-09-09T12:14:56;3.22;;;0.98;;
21837;SDS011;11081;45.946;6.140;2022-09-09T12:17:27;4.35;;;1.50;;
21837;SDS011;11081;45.946;6.140;2022-09-09T12:20:15;1.00;;;0.40;;
21837;SDS011;11081;45.946;6.140;2022-09-09T12:25:47;1.73;;;0.70;;
21837;SDS011;11081;45.946;6.140;2022-09-09T12:28:25;2.30;;;0.57;;
21837;SDS011;11081;45.946;6.140;2022-09-09T12:31:03;3.28;;;0.75;;
21837;SDS011;11081;45.946;6.140;2022-09-09T12:33:37;1.35;;;0.40;;
21837;SDS011;11081;45.946;6.140;2022-09-09T12:36:11;3.33;;;0.68;;
21837;SDS011;11081;45.946;6.140;2022-09-09T12:38:42;1.20;;;0.52;;
21837;SDS011;11081;45.946;6.140;2022-09-09T12:41:17;2.00;;;0.63;;
21837;SDS011;11081;45.946;6.140;2022-09-09T12:43:47;3.72;;;0.80;;
21837;SDS011;11081;45.946;6.140;2022-09-09T12:46:22;2.80;;;0.68;;
21837;SDS011;11081;45.946;6.140;2022-09-09T12:48:56;5.18;;;0.70;;
21837;SDS011;11081;45.946;6.140;2022-09-09T12:51:26;4.30;;;1.00;;
21837;SDS011;11081;45.946;6.140;2022-09-09T12:53:56;9.02;;;1.00;;
21837;SDS011;11081;45.946;6.140;2022-09-09T12:56:25;2.67;;;0.80;;
21837;SDS011;11081;45.946;6.140;2022-09-09T12:58:57;1.63;;;0.47;;
21837;SDS011;11081;45.946;6.140;2022-09-09T13:01:28;1.48;;;0.70;;
21837;SDS011;11081;45.946;6.140;2022-09-09T13:03:57;1.75;;;0.57;;
21837;SDS011;11081;45.946;6.140;2022-09-09T13:06:27;1.65;;;0.57;;
21837;SDS011;11081;45.946;6.140;2022-09-09T13:08:56;2.33;;;0.70;;
21837;SDS011;11081;45.946;6.140;2022-09-09T13:11:27;2.60;;;0.57;;
21837;SDS011;11081;45.946;6.140;2022-09-09T13:13:58;2.03;;;0.70;;
21837;SDS011;11081;45.946;6.140;2022-09-09T13:16:27;2.70;;;0.70;;
21837;SDS011;11081;45.946;6.140;2022-09-09T13:19:00;2.15;;;0.50;;
21837;SDS011;11081;45.946;6.140;2022-09-09T13:21:36;1.77;;;0.85;;
21837;SDS011;11081;45.946;6.140;2022-09-09T13:24:06;2.83;;;0.88;;
21837;SDS011;11081;45.946;6.140;2022-09-09T13:26:53;1.85;;;0.60;;
21837;SDS011;11081;45.946;6.140;2022-09-09T13:29:22;3.97;;;0.70;;
21837;SDS011;11081;45.946;6.140;2022-09-09T13:31:52;3.22;;;0.70;;
21837;SDS011;11081;45.946;6.140;2022-09-09T13:34:28;2.45;;;0.57;;
21837;SDS011;11081;45.946;6.140;2022-09-09T13:37:01;4.28;;;0.80;;
21837;SDS011;11081;45.946;6.140;2022-09-09T13:39:32;1.00;;;0.40;;
21837;SDS011;11081;45.946;6.140;2022-09-09T13:42:03;3.17;;;0.73;;
21837;SDS011;11081;45.946;6.140;2022-09-09T13:44:34;2.97;;;0.90;;
21837;SDS011;11081;45.946;6.140;2022-09-09T13:47:06;1.98;;;0.57;;
21837;SDS011;11081;45.946;6.140;2022-09-09T13:49:46;3.40;;;0.60;;
21837;SDS011;11081;45.946;6.140;2022-09-09T13:52:16;2.67;;;0.68;;
21837;SDS011;11081;45.946;6.140;2022-09-09T13:54:47;5.45;;;0.73;;
21837;SDS011;11081;45.946;6.140;2022-09-09T13:57:16;1.92;;;0.80;;
21837;SDS011;11081;45.946;6.140;2022-09-09T13:59:46;3.80;;;0.82;;
21837;SDS011;11081;45.946;6.140;2022-09-09T14:02:31;1.00;;;0.50;;
21837;SDS011;11081;45.946;6.140;2022-09-09T14:05:00;2.20;;;0.75;;
21837;SDS011;11081;45.946;6.140;2022-09-09T14:07:29;3.15;;;0.70;;
21837;SDS011;11081;45.946;6.140;2022-09-09T14:09:58;3.47;;;0.50;;
21837;SDS011;11081;45.946;6.140;2022-09-09T14:12:26;1.65;;;0.55;;
21837;SDS011;11081;45.946;6.140;2022-09-09T14:14:54;1.75;;;0.73;;
21837;SDS011;11081;45.946;6.140;2022-09-09T14:17:22;3.05;;;0.90;;
21837;SDS011;11081;45.946;6.140;2022-09-09T14:19:51;3.30;;;0.90;;
21837;SDS011;11081;45.946;6.140;2022-09-09T14:22:19;2.78;;;0.90;;
21837;SDS011;11081;45.946;6.140;2022-09-09T14:24:49;2.20;;;0.85;;
21837;SDS011;11081;45.946;6.140;2022-09-09T14:27:17;2.35;;;0.60;;
21837;SDS011;11081;45.946;6.140;2022-09-09T14:29:46;1.85;;;0.80;;
21837;SDS011;11081;45.946;6.140;2022-09-09T14:32:14;1.98;;;0.57;;
21837;SDS011;11081;45.946;6.140;2022-09-09T14:34:42;1.58;;;0.60;;
21837;SDS011;11081;45.946;6.140;2022-09-09T14:37:10;7.18;;;0.90;;
21837;SDS011;11081;45.946;6.140;2022-09-09T14:39:38;5.53;;;1.10;;
21837;SDS011;11081;45.946;6.140;2022-09-09T14:42:08;3.20;;;0.82;;
21837;SDS011;11081;45.946;6.140;2022-09-09T14:44:37;3.33;;;0.85;;
21837;SDS011;11081;45.946;6.140;2022-09-09T14:47:05;9.30;;;0.90;;
21837;SDS011;11081;45.946;6.140;2022-09-09T14:49:34;1.45;;;0.70;;
21837;SDS011;11081;45.946;6.140;2022-09-09T14:52:02;4.65;;;0.60;;
21837;SDS011;11081;45.946;6.140;2022-09-09T14:54:31;1.75;;;0.60;;
21837;SDS011;11081;45.946;6.140;2022-09-09T14:56:59;1.38;;;0.60;;
21837;SDS011;11081;45.946;6.140;2022-09-09T14:59:30;1.98;;;0.57;;
21837;SDS011;11081;45.946;6.140;2022-09-09T15:01:58;5.10;;;0.70;;
21837;SDS011;11081;45.946;6.140;2022-09-09T15:04:30;3.15;;;0.77;;
21837;SDS011;11081;45.946;6.140;2022-09-09T15:06:58;2.92;;;0.60;;
21837;SDS011;11081;45.946;6.140;2022-09-09T15:09:26;4.68;;;0.57;;
21837;SDS011;11081;45.946;6.140;2022-09-09T15:11:54;4.10;;;0.70;;
21837;SDS011;11081;45.946;6.140;2022-09-09T15:14:22;3.42;;;0.57;;
21837;SDS011;11081;45.946;6.140;2022-09-09T15:16:52;3.05;;;0.88;;
21837;SDS011;11081;45.946;6.140;2022-09-09T15:19:20;3.63;;;0.75;;
21837;SDS011;11081;45.946;6.140;2022-09-09T15:21:48;2.70;;;0.52;;
21837;SDS011;11081;45.946;6.140;2022-09-09T15:24:16;1.52;;;0.50;;
21837;SDS011;11081;45.946;6.140;2022-09-09T15:26:44;1.70;;;0.50;;
21837;SDS011;11081;45.946;6.140;2022-09-09T15:29:13;3.63;;;0.60;;
21837;SDS011;11081;45.946;6.140;2022-09-09T15:31:41;1.63;;;0.70;;
21837;SDS011;11081;45.946;6.140;2022-09-09T15:34:11;2.30;;;0.40;;
21837;SDS011;11081;45.946;6.140;2022-09-09T15:36:40;2.83;;;0.57;;
21837;SDS011;11081;45.946;6.140;2022-09-09T15:39:10;3.45;;;0.70;;
21837;SDS011;11081;45.946;6.140;2022-09-09T15:41:39;2.58;;;0.82;;
21837;SDS011;11081;45.946;6.140;2022-09-09T15:44:07;3.00;;;1.10;;
21837;SDS011;11081;45.946;6.140;2022-09-09T15:46:37;3.17;;;0.70;;
21837;SDS011;11081;45.946;6.140;2022-09-09T15:49:07;3.47;;;0.70;;